MiSS Sarah — WDE9595 — position and weather

sailwx.info

Track history (hours):
 
Tides and Currents Weather Stations Pressure Air Temp Water Temp Dewpoint Dewpoint Depression Visibility Wind Speed Wind Dir Waves Ship Positions

MiSS Sarah

Owner: Higman Barge Lines, Inc, Orange, TX. More information available from US FCC via Universal Licensing System and Coast Guard Vessel Documentation Center.

Last reported at 2016-Jun-21 10:33 UTC. Time now 2016-Jun-29 18:25 UTC.
Position N 29°44' W 095°08'.
Warning: this ship's position is 8 days out of date.

Date/timePositionNaut miles runAvg speedWind from/ knotsBaromVisibWave heightAir tempDewpointWater temp
2016-Jun-21 10:33N 29°44' W 095°08'0 0.0
2016-Jun-21 09:33N 29°44' W 095°08'0 0.0
2016-Jun-21 08:33N 29°44' W 095°08'0 0.0
2016-Jun-21 07:33N 29°44' W 095°08'4 0.9
2016-Jun-21 03:32N 29°45' W 095°12'0 0.0
2016-Jun-21 02:23N 29°45' W 095°12'1 0.0
2016-Jun-20 09:22N 29°45' W 095°11'4 4.3
2016-Jun-20 08:30N 29°44' W 095°07'3 2.5
2016-Jun-20 07:18N 29°47' W 095°05'0 0.0
2016-Jun-20 06:27N 29°47' W 095°05'1 1.4
2016-Jun-20 05:33N 29°46' W 095°06'1 1.3
2016-Jun-20 04:33N 29°45' W 095°07'0 0.0
2016-Jun-20 03:34N 29°45' W 095°07'0 0.0
2016-Jun-20 02:33N 29°45' W 095°07'0 0.0
2016-Jun-20 01:30N 29°45' W 095°07'0 0.0
2016-Jun-20 00:33N 29°45' W 095°07'0 0.0
2016-Jun-19 23:33N 29°45' W 095°07'0 0.0
2016-Jun-19 22:33N 29°45' W 095°07'0 0.0
2016-Jun-19 21:31N 29°45' W 095°07'0 0.0
2016-Jun-19 20:33N 29°45' W 095°07'0 0.0
2016-Jun-19 19:32N 29°45' W 095°07'0 0.0
2016-Jun-19 18:33N 29°45' W 095°07'0 0.0
2016-Jun-19 17:33N 29°45' W 095°07'0 0.0
2016-Jun-19 16:24N 29°45' W 095°07'0 0.0
2016-Jun-19 15:33N 29°45' W 095°07'1 1.0
2016-Jun-19 14:27N 29°45' W 095°06'1 0.2
2016-Jun-19 08:27N 29°46' W 095°05'0 0.0
2016-Jun-19 07:13N 29°46' W 095°05'0 0.0
2016-Jun-19 06:33N 29°46' W 095°05'0 0.0
2016-Jun-19 04:24N 29°46' W 095°05'0 0.0
2016-Jun-19 03:31N 29°46' W 095°05'0 0.0
2016-Jun-19 02:29N 29°46' W 095°05'0 0.0
2016-Jun-19 01:31N 29°46' W 095°05'0 0.0
2016-Jun-18 23:28N 29°46' W 095°05'0 0.0
2016-Jun-18 22:11N 29°46' W 095°05'0 0.0
2016-Jun-18 21:33N 29°46' W 095°05'0 0.0
2016-Jun-18 20:32N 29°46' W 095°05'0 0.0
2016-Jun-18 18:28N 29°46' W 095°05'0 0.0
2016-Jun-18 17:32N 29°46' W 095°05'0 0.0
2016-Jun-18 16:30N 29°46' W 095°05'0 0.0
2016-Jun-18 15:33N 29°46' W 095°05'0 0.0
2016-Jun-18 13:31N 29°46' W 095°05'0 0.0
2016-Jun-18 12:23N 29°46' W 095°05'0 0.0
2016-Jun-18 11:31N 29°47' W 095°05'0 0.0
2016-Jun-18 10:33N 29°47' W 095°05'0 0.0
2016-Jun-18 09:31N 29°47' W 095°05'0 0.0
2016-Jun-18 08:33N 29°47' W 095°05'0 0.0
2016-Jun-18 07:33N 29°47' W 095°05'0 0.0
2016-Jun-18 06:33N 29°47' W 095°05'0 0.0
2016-Jun-18 05:33N 29°47' W 095°05'0 0.0
2016-Jun-18 04:33N 29°47' W 095°05'0 0.0
2016-Jun-18 03:33N 29°47' W 095°05'0 0.0
2016-Jun-18 02:33N 29°47' W 095°05'0 0.0
2016-Jun-18 01:32N 29°47' W 095°05'0 0.0
2016-Jun-18 00:33N 29°47' W 095°05'0 0.0
2016-Jun-17 23:33N 29°47' W 095°05'0 0.0
2016-Jun-17 22:32N 29°47' W 095°05'0 0.0
2016-Jun-17 21:33N 29°47' W 095°05'0 0.0
2016-Jun-17 20:33N 29°47' W 095°05'0 0.0
2016-Jun-17 19:33N 29°47' W 095°05'0 0.0
2016-Jun-17 18:33N 29°47' W 095°05'0 0.0
2016-Jun-17 17:33N 29°47' W 095°05'0 0.0
2016-Jun-17 16:33N 29°47' W 095°05'0 0.0
2016-Jun-17 15:34N 29°47' W 095°05'0 0.0
2016-Jun-17 14:33N 29°47' W 095°05'0 0.0
2016-Jun-17 13:33N 29°47' W 095°05'0 0.0
2016-Jun-17 12:33N 29°47' W 095°05'0 0.0
2016-Jun-17 11:33N 29°47' W 095°05'0 0.0
2016-Jun-17 10:33N 29°47' W 095°05'0 0.0
2016-Jun-17 09:33N 29°46' W 095°05'0 0.0
2016-Jun-17 08:33N 29°46' W 095°05'0 0.0
2016-Jun-17 07:33N 29°46' W 095°05'0 0.0
2016-Jun-17 06:33N 29°46' W 095°05'0 0.0
2016-Jun-17 05:33N 29°46' W 095°05'0 0.0
2016-Jun-17 04:32N 29°46' W 095°05'0 0.0
2016-Jun-17 03:34N 29°46' W 095°05'0 0.0
2016-Jun-17 02:33N 29°46' W 095°05'0 0.0
2016-Jun-17 01:33N 29°46' W 095°05'0 0.0
2016-Jun-16 14:33N 29°46' W 095°05'0 0.0
2016-Jun-16 13:33N 29°46' W 095°05'0 0.0
2016-Jun-16 12:33N 29°46' W 095°05'0 0.0
2016-Jun-16 11:33N 29°46' W 095°05'0 0.0
2016-Jun-16 10:32N 29°46' W 095°05'0 0.0
2016-Jun-16 09:33N 29°47' W 095°05'0 0.0
2016-Jun-16 08:33N 29°47' W 095°05'0 0.0
2016-Jun-16 07:33N 29°47' W 095°05'0 0.0
2016-Jun-16 06:32N 29°47' W 095°05'0 0.0
2016-Jun-16 05:33N 29°47' W 095°05'0 0.0
2016-Jun-16 04:33N 29°47' W 095°05'0 0.0
2016-Jun-16 03:33N 29°47' W 095°05'0 0.0
2016-Jun-16 02:33N 29°47' W 095°05'0 0.0
2016-Jun-16 01:34N 29°47' W 095°05'3 2.5
2016-Jun-16 00:33N 29°45' W 095°07'0 0.0
2016-Jun-15 23:33N 29°45' W 095°07'2 2.2
2016-Jun-15 22:33N 29°46' W 095°05'0 0.4
2016-Jun-15 21:33N 29°47' W 095°05'0 0.0
2016-Jun-15 20:33N 29°47' W 095°05'4 3.7
2016-Jun-15 19:33N 29°44' W 095°08'0 0.0
2016-Jun-15 18:33N 29°44' W 095°08'0 0.0
2016-Jun-15 17:33N 29°44' W 095°08'0 0.0
2016-Jun-15 16:33N 29°44' W 095°08'0 0.0
2016-Jun-15 15:33N 29°44' W 095°08'0 0.0
2016-Jun-15 14:33N 29°44' W 095°08'0 0.0
2016-Jun-15 13:33N 29°44' W 095°08'0 0.0
2016-Jun-15 12:34N 29°44' W 095°08'0 0.0
2016-Jun-15 11:34N 29°44' W 095°08'0 0.0
2016-Jun-15 10:33N 29°44' W 095°08'0 0.0
2016-Jun-15 09:33N 29°44' W 095°08'0 0.0
2016-Jun-15 08:33N 29°44' W 095°08'0 0.0
2016-Jun-15 04:33N 29°44' W 095°08'0 0.0
2016-Jun-15 03:33N 29°44' W 095°08'0 0.0
2016-Jun-15 02:33N 29°44' W 095°08'0 0.0
2016-Jun-15 01:33N 29°44' W 095°08'0 0.0
2016-Jun-15 00:33N 29°44' W 095°08'0 0.0
2016-Jun-14 23:33N 29°44' W 095°08'  
2016-Jun-12 15:33N 29°47' W 095°05'0 0.0
2016-Jun-12 14:33N 29°47' W 095°05'0 0.0
2016-Jun-12 13:33N 29°47' W 095°05'0 0.0
2016-Jun-12 12:33N 29°47' W 095°05'0 0.0
2016-Jun-12 11:31N 29°47' W 095°05'0 0.0
2016-Jun-12 10:33N 29°47' W 095°05'0 0.0
2016-Jun-12 09:33N 29°47' W 095°05'0 0.0
2016-Jun-12 08:32N 29°47' W 095°05'0 0.0
2016-Jun-12 07:33N 29°47' W 095°05'0 0.0
2016-Jun-12 06:33N 29°47' W 095°05'0 0.0
2016-Jun-12 04:29N 29°47' W 095°05'0 0.4
2016-Jun-12 03:33N 29°46' W 095°05'5 4.8
2016-Jun-12 02:33N 29°44' W 095°10'  
Track history (hours):
 
Tides and Currents Weather Stations Pressure Air Temp Water Temp Dewpoint Dewpoint Depression Visibility Wind Speed Wind Dir Waves Ship Positions

MiSS Sarah

Owner: Higman Barge Lines, Inc, Orange, TX. More information available from US FCC via Universal Licensing System and Coast Guard Vessel Documentation Center.

Last reported at 2016-Jun-21 10:33 UTC. Time now 2016-Jun-29 18:25 UTC.
Position N 29°44' W 095°08'.
Warning: this ship's position is 8 days out of date.

Date/timePositionNaut miles runAvg speedWind from/ knotsBaromVisibWave heightAir tempDewpointWater temp
2016-Jun-21 10:33N 29°44' W 095°08'0 0.0
2016-Jun-21 09:33N 29°44' W 095°08'0 0.0
2016-Jun-21 08:33N 29°44' W 095°08'0 0.0
2016-Jun-21 07:33N 29°44' W 095°08'4 0.9
2016-Jun-21 03:32N 29°45' W 095°12'0 0.0
2016-Jun-21 02:23N 29°45' W 095°12'1 0.0
2016-Jun-20 09:22N 29°45' W 095°11'4 4.3
2016-Jun-20 08:30N 29°44' W 095°07'3 2.5
2016-Jun-20 07:18N 29°47' W 095°05'0 0.0
2016-Jun-20 06:27N 29°47' W 095°05'1 1.4
2016-Jun-20 05:33N 29°46' W 095°06'1 1.3
2016-Jun-20 04:33N 29°45' W 095°07'0 0.0
2016-Jun-20 03:34N 29°45' W 095°07'0 0.0
2016-Jun-20 02:33N 29°45' W 095°07'0 0.0
2016-Jun-20 01:30N 29°45' W 095°07'0 0.0
2016-Jun-20 00:33N 29°45' W 095°07'0 0.0
2016-Jun-19 23:33N 29°45' W 095°07'0 0.0
2016-Jun-19 22:33N 29°45' W 095°07'0 0.0
2016-Jun-19 21:31N 29°45' W 095°07'0 0.0
2016-Jun-19 20:33N 29°45' W 095°07'0 0.0
2016-Jun-19 19:32N 29°45' W 095°07'0 0.0
2016-Jun-19 18:33N 29°45' W 095°07'0 0.0
2016-Jun-19 17:33N 29°45' W 095°07'0 0.0
2016-Jun-19 16:24N 29°45' W 095°07'0 0.0
2016-Jun-19 15:33N 29°45' W 095°07'1 1.0
2016-Jun-19 14:27N 29°45' W 095°06'1 0.2
2016-Jun-19 08:27N 29°46' W 095°05'0 0.0
2016-Jun-19 07:13N 29°46' W 095°05'0 0.0
2016-Jun-19 06:33N 29°46' W 095°05'0 0.0
2016-Jun-19 04:24N 29°46' W 095°05'0 0.0
2016-Jun-19 03:31N 29°46' W 095°05'0 0.0
2016-Jun-19 02:29N 29°46' W 095°05'0 0.0
2016-Jun-19 01:31N 29°46' W 095°05'0 0.0
2016-Jun-18 23:28N 29°46' W 095°05'0 0.0
2016-Jun-18 22:11N 29°46' W 095°05'0 0.0
2016-Jun-18 21:33N 29°46' W 095°05'0 0.0
2016-Jun-18 20:32N 29°46' W 095°05'0 0.0
2016-Jun-18 18:28N 29°46' W 095°05'0 0.0
2016-Jun-18 17:32N 29°46' W 095°05'0 0.0
2016-Jun-18 16:30N 29°46' W 095°05'0 0.0
2016-Jun-18 15:33N 29°46' W 095°05'0 0.0
2016-Jun-18 13:31N 29°46' W 095°05'0 0.0
2016-Jun-18 12:23N 29°46' W 095°05'0 0.0
2016-Jun-18 11:31N 29°47' W 095°05'0 0.0
2016-Jun-18 10:33N 29°47' W 095°05'0 0.0
2016-Jun-18 09:31N 29°47' W 095°05'0 0.0
2016-Jun-18 08:33N 29°47' W 095°05'0 0.0
2016-Jun-18 07:33N 29°47' W 095°05'0 0.0
2016-Jun-18 06:33N 29°47' W 095°05'0 0.0
2016-Jun-18 05:33N 29°47' W 095°05'0 0.0
2016-Jun-18 04:33N 29°47' W 095°05'0 0.0
2016-Jun-18 03:33N 29°47' W 095°05'0 0.0
2016-Jun-18 02:33N 29°47' W 095°05'0 0.0
2016-Jun-18 01:32N 29°47' W 095°05'0 0.0
2016-Jun-18 00:33N 29°47' W 095°05'0 0.0
2016-Jun-17 23:33N 29°47' W 095°05'0 0.0
2016-Jun-17 22:32N 29°47' W 095°05'0 0.0
2016-Jun-17 21:33N 29°47' W 095°05'0 0.0
2016-Jun-17 20:33N 29°47' W 095°05'0 0.0
2016-Jun-17 19:33N 29°47' W 095°05'0 0.0
2016-Jun-17 18:33N 29°47' W 095°05'0 0.0
2016-Jun-17 17:33N 29°47' W 095°05'0 0.0
2016-Jun-17 16:33N 29°47' W 095°05'0 0.0
2016-Jun-17 15:34N 29°47' W 095°05'0 0.0
2016-Jun-17 14:33N 29°47' W 095°05'0 0.0
2016-Jun-17 13:33N 29°47' W 095°05'0 0.0
2016-Jun-17 12:33N 29°47' W 095°05'0 0.0
2016-Jun-17 11:33N 29°47' W 095°05'0 0.0
2016-Jun-17 10:33N 29°47' W 095°05'0 0.0
2016-Jun-17 09:33N 29°46' W 095°05'0 0.0
2016-Jun-17 08:33N 29°46' W 095°05'0 0.0
2016-Jun-17 07:33N 29°46' W 095°05'0 0.0
2016-Jun-17 06:33N 29°46' W 095°05'0 0.0
2016-Jun-17 05:33N 29°46' W 095°05'0 0.0
2016-Jun-17 04:32N 29°46' W 095°05'0 0.0
2016-Jun-17 03:34N 29°46' W 095°05'0 0.0
2016-Jun-17 02:33N 29°46' W 095°05'0 0.0
2016-Jun-17 01:33N 29°46' W 095°05'0 0.0
2016-Jun-16 14:33N 29°46' W 095°05'0 0.0
2016-Jun-16 13:33N 29°46' W 095°05'0 0.0
2016-Jun-16 12:33N 29°46' W 095°05'0 0.0
2016-Jun-16 11:33N 29°46' W 095°05'0 0.0
2016-Jun-16 10:32N 29°46' W 095°05'0 0.0
2016-Jun-16 09:33N 29°47' W 095°05'0 0.0
2016-Jun-16 08:33N 29°47' W 095°05'0 0.0
2016-Jun-16 07:33N 29°47' W 095°05'0 0.0
2016-Jun-16 06:32N 29°47' W 095°05'0 0.0
2016-Jun-16 05:33N 29°47' W 095°05'0 0.0
2016-Jun-16 04:33N 29°47' W 095°05'0 0.0
2016-Jun-16 03:33N 29°47' W 095°05'0 0.0
2016-Jun-16 02:33N 29°47' W 095°05'0 0.0
2016-Jun-16 01:34N 29°47' W 095°05'3 2.5
2016-Jun-16 00:33N 29°45' W 095°07'0 0.0
2016-Jun-15 23:33N 29°45' W 095°07'2 2.2
2016-Jun-15 22:33N 29°46' W 095°05'0 0.4
2016-Jun-15 21:33N 29°47' W 095°05'0 0.0
2016-Jun-15 20:33N 29°47' W 095°05'4 3.7
2016-Jun-15 19:33N 29°44' W 095°08'0 0.0
2016-Jun-15 18:33N 29°44' W 095°08'0 0.0
2016-Jun-15 17:33N 29°44' W 095°08'0 0.0
2016-Jun-15 16:33N 29°44' W 095°08'0 0.0
2016-Jun-15 15:33N 29°44' W 095°08'0 0.0
2016-Jun-15 14:33N 29°44' W 095°08'0 0.0
2016-Jun-15 13:33N 29°44' W 095°08'0 0.0
2016-Jun-15 12:34N 29°44' W 095°08'0 0.0
2016-Jun-15 11:34N 29°44' W 095°08'0 0.0
2016-Jun-15 10:33N 29°44' W 095°08'0 0.0
2016-Jun-15 09:33N 29°44' W 095°08'0 0.0
2016-Jun-15 08:33N 29°44' W 095°08'0 0.0
2016-Jun-15 04:33N 29°44' W 095°08'0 0.0
2016-Jun-15 03:33N 29°44' W 095°08'0 0.0
2016-Jun-15 02:33N 29°44' W 095°08'0 0.0
2016-Jun-15 01:33N 29°44' W 095°08'0 0.0
2016-Jun-15 00:33N 29°44' W 095°08'0 0.0
2016-Jun-14 23:33N 29°44' W 095°08'  
2016-Jun-12 15:33N 29°47' W 095°05'0 0.0
2016-Jun-12 14:33N 29°47' W 095°05'0 0.0
2016-Jun-12 13:33N 29°47' W 095°05'0 0.0
2016-Jun-12 12:33N 29°47' W 095°05'0 0.0
2016-Jun-12 11:31N 29°47' W 095°05'0 0.0
2016-Jun-12 10:33N 29°47' W 095°05'0 0.0
2016-Jun-12 09:33N 29°47' W 095°05'0 0.0
2016-Jun-12 08:32N 29°47' W 095°05'0 0.0
2016-Jun-12 07:33N 29°47' W 095°05'0 0.0
2016-Jun-12 06:33N 29°47' W 095°05'0 0.0
2016-Jun-12 04:29N 29°47' W 095°05'0 0.4
2016-Jun-12 03:33N 29°46' W 095°05'5 4.8
2016-Jun-12 02:33N 29°44' W 095°10'  

Dump ship's entire track history